Time;durP1;ratioP1;P1;durP2;ratioP2;P2;SDS_P1;SDS_P2;PMS_P1;PMS_P2;Temp;Humidity;BMP_temperature;BMP_pressure;BME280_temperature;BME280_humidity;BME280_pressure;Samples;Min_cycle;Max_cycle;Signal;HPM_P1;HPM_P2
2021/12/07 00:03:12;;;;;;;47.97;44.77;;;;;;;4.93;100.00;101048.63;1842854;76;86477;-71
2021/12/07 00:08:56;;;;;;;45.33;42.33;;;;;;;4.97;100.00;101054.48;1920109;72;86036;-71
2021/12/07 00:14:43;;;;;;;45.43;42.33;;;;;;;4.94;100.00;101064.61;1909750;74;39904;-71
2021/12/07 00:20:28;;;;;;;45.97;42.87;;;;;;;4.96;100.00;101067.97;1790611;78;86851;-71
2021/12/07 00:26:12;;;;;;;48.23;44.80;;;;;;;4.81;100.00;101066.25;1823015;78;85867;-71
2021/12/07 00:32:09;;;;;;;48.07;44.87;;;;;;;4.74;100.00;101065.56;1925620;73;86272;-72
2021/12/07 00:40:54;;;;;;;47.97;44.53;;;;;;;4.82;100.00;101080.31;1965323;69;40604;-71
2021/12/07 00:43:26;;;;;;;47.50;44.03;;;;;;;4.65;100.00;101098.10;1914666;73;935003;-70
2021/12/07 00:45:58;;;;;;;48.10;44.80;;;;;;;4.71;100.00;101100.41;1882788;74;937502;-70
2021/12/07 00:48:29;;;;;;;49.83;46.30;;;;;;;4.70;100.00;101094.10;1826838;75;938775;-72
2021/12/07 00:51:00;;;;;;;47.87;44.60;;;;;;;4.65;100.00;101087.09;1905028;73;938764;-72
2021/12/07 00:53:31;;;;;;;48.97;45.27;;;;;;;4.57;100.00;101092.44;1873978;74;938787;-71
2021/12/07 00:56:03;;;;;;;47.13;43.73;;;;;;;4.55;100.00;101089.61;1837445;76;938771;-73
2021/12/07 00:58:34;;;;;;;48.65;45.15;;;;;;;4.49;100.00;101083.70;1837692;75;938748;-70
2021/12/07 01:01:08;;;;;;;48.87;45.40;;;;;;;4.31;100.00;101079.16;1837524;74;938635;-71
2021/12/07 01:03:40;;;;;;;49.60;45.85;;;;;;;4.22;100.00;101090.73;1896473;73;938148;-72
2021/12/07 01:09:31;;;;;;;48.90;45.40;;;;;;;3.98;100.00;101081.63;1850184;76;86675;-71
2021/12/07 01:27:19;;;;;;;51.97;48.07;;;;;;;3.52;100.00;101103.76;1871274;75;85349;-70
2021/12/07 01:33:21;;;;;;;51.77;47.97;;;;;;;3.42;100.00;101082.91;1933149;72;86194;-70
2021/12/07 01:45:21;;;;;;;51.80;47.97;;;;;;;3.27;100.00;101079.72;1939068;73;86284;-71
2021/12/07 01:51:12;;;;;;;51.30;47.40;;;;;;;3.37;100.00;101067.66;1917280;72;86030;-72
2021/12/07 02:02:52;;;;;;;50.27;46.67;;;;;;;3.09;100.00;101066.86;1909698;74;39677;-69
2021/12/07 02:08:36;;;;;;;50.10;46.60;;;;;;;2.96;100.00;101067.55;1804641;78;85519;-73
2021/12/07 02:14:20;;;;;;;50.80;46.97;;;;;;;3.06;100.00;101055.52;1817025;78;86719;-71
2021/12/07 02:20:10;;;;;;;50.03;46.07;;;;;;;2.99;100.00;101061.09;1803178;77;85618;-70
2021/12/07 02:25:55;;;;;;;49.87;46.17;;;;;;;3.00;100.00;101071.52;1934785;73;86345;-71
2021/12/07 02:31:39;;;;;;;51.40;47.33;;;;;;;2.84;100.00;101079.84;1869474;76;85710;-72
2021/12/07 02:37:24;;;;;;;49.23;45.53;;;;;;;2.88;100.00;101084.33;1850523;76;85532;-71
2021/12/07 02:43:08;;;;;;;49.47;45.67;;;;;;;3.03;100.00;101097.14;1903640;72;86494;-72
2021/12/07 02:48:52;;;;;;;49.20;45.50;;;;;;;3.36;100.00;101083.82;1796864;79;86216;-70
2021/12/07 02:54:43;;;;;;;50.37;46.67;;;;;;;3.41;100.00;101063.38;1825207;77;86499;-73
2021/12/07 03:00:34;;;;;;;53.07;48.70;;;;;;;3.35;100.00;101074.43;1850795;76;86724;-72
2021/12/07 03:06:19;;;;;;;49.43;45.73;;;;;;;3.23;100.00;101075.77;1828771;76;87055;-70
2021/12/07 03:30:27;;;;;;;50.60;46.60;;;;;;;3.39;100.00;101064.66;1854896;76;85394;-71
2021/12/07 03:36:13;;;;;;;49.60;45.93;;;;;;;3.32;100.00;101051.58;1834626;76;86599;-73
2021/12/07 03:41:58;;;;;;;49.83;46.17;;;;;;;3.54;100.00;101071.95;1936618;71;86092;-69
2021/12/07 03:47:42;;;;;;;51.17;47.07;;;;;;;3.36;100.00;101074.74;1870083;73;39643;-71
2021/12/07 03:53:28;;;;;;;51.60;47.67;;;;;;;3.39;100.00;101075.11;1837904;76;86109;-71
2021/12/07 03:59:13;;;;;;;51.77;47.73;;;;;;;3.42;100.00;101063.69;1826954;78;86496;-71
2021/12/07 04:05:01;;;;;;;51.43;47.67;;;;;;;3.42;100.00;101058.19;1913298;72;86133;-72
2021/12/07 04:10:43;;;;;;;50.30;46.27;;;;;;;3.38;100.00;101044.59;1909272;74;40498;-72
2021/12/07 04:16:28;;;;;;;51.23;47.33;;;;;;;3.42;100.00;101034.86;1819710;76;86814;-72
2021/12/07 04:22:12;;;;;;;51.00;46.97;;;;;;;3.33;100.00;101038.16;1834326;75;86300;-69
2021/12/07 04:27:57;;;;;;;51.43;47.27;;;;;;;3.30;100.00;101026.24;1944416;73;85615;-71
2021/12/07 04:33:43;;;;;;;50.60;46.87;;;;;;;3.24;100.00;101025.83;1875588;73;39709;-72
2021/12/07 04:39:27;;;;;;;51.27;47.03;;;;;;;3.48;100.00;101010.56;1835887;75;86469;-73
2021/12/07 04:45:23;;;;;;;51.10;47.30;;;;;;;3.63;100.00;101011.50;1837491;76;86321;-69
2021/12/07 05:03:08;;;;;;;51.30;47.33;;;;;;;3.16;100.00;100983.92;1895759;73;85944;-71
2021/12/07 05:08:56;;;;;;;51.43;47.57;;;;;;;3.29;100.00;100973.81;1906214;74;40546;-71
2021/12/07 05:14:37;;;;;;;51.50;47.50;;;;;;;3.21;100.00;100973.05;1792401;78;86804;-69
2021/12/07 05:38:32;;;;;;;53.23;48.90;;;;;;;3.09;100.00;100933.77;1792811;78;86795;-71
2021/12/07 05:44:16;;;;;;;51.70;47.50;;;;;;;3.06;100.00;100936.98;1886479;74;86199;-70
2021/12/07 05:50:00;;;;;;;52.53;48.30;;;;;;;3.19;100.00;100935.41;1911180;74;86993;-71
2021/12/07 05:55:44;;;;;;;52.47;48.23;;;;;;;3.23;100.00;100930.28;1861717;73;39705;-71
2021/12/07 06:01:29;;;;;;;49.37;45.37;;;;;;;3.39;100.00;100923.27;1820573;77;86367;-70
2021/12/07 06:07:13;;;;;;;52.70;48.50;;;;;;;3.38;100.00;100905.95;1919515;73;86220;-71
2021/12/07 06:12:56;;;;;;;50.53;46.40;;;;;;;3.50;100.00;100874.41;1902007;72;86496;-72
2021/12/07 06:18:41;;;;;;;51.57;47.70;;;;;;;3.62;100.00;100832.67;1867112;73;39698;-71
2021/12/07 06:24:25;;;;;;;50.20;46.40;;;;;;;3.38;100.00;100806.31;1853638;76;86825;-72
2021/12/07 06:30:12;;;;;;;50.67;46.37;;;;;;;3.49;100.00;100790.35;1832217;76;86419;-70
2021/12/07 06:36:00;;;;;;;49.53;45.57;;;;;;;3.29;100.00;100787.98;1943295;73;86347;-71
2021/12/07 06:41:44;;;;;;;48.90;45.00;;;;;;;3.59;100.00;100787.28;1890590;74;40922;-71
2021/12/07 06:47:28;;;;;;;48.97;45.27;;;;;;;3.57;100.00;100766.11;1788483;78;86467;-73
2021/12/07 06:53:13;;;;;;;47.83;44.10;;;;;;;3.68;100.00;100753.98;1829856;78;86878;-71
2021/12/07 06:58:57;;;;;;;51.47;47.43;;;;;;;3.73;100.00;100735.67;1916532;74;86721;-71
2021/12/07 07:04:41;;;;;;;53.87;49.87;;;;;;;3.83;100.00;100749.63;1899959;74;45443;-71
2021/12/07 07:10:25;;;;;;;52.80;49.03;;;;;;;3.66;100.00;100733.61;1866167;76;86172;-73
2021/12/07 07:16:09;;;;;;;53.30;49.40;;;;;;;3.60;100.00;100713.44;1825282;78;86564;-71
2021/12/07 07:21:53;;;;;;;51.40;47.63;;;;;;;3.49;100.00;100705.23;1908780;72;86909;-73
2021/12/07 07:27:37;;;;;;;51.57;47.57;;;;;;;3.52;100.00;100674.53;1806295;78;86588;-72
2021/12/07 07:33:25;;;;;;;53.17;49.30;;;;;;;3.58;100.00;100663.42;1863784;76;86315;-72
2021/12/07 07:39:09;;;;;;;52.60;48.57;;;;;;;3.80;100.00;100654.51;1819046;76;85600;-72
2021/12/07 07:44:54;;;;;;;52.87;48.77;;;;;;;3.92;100.00;100648.41;1916698;73;86197;-71
2021/12/07 07:50:39;;;;;;;52.13;48.40;;;;;;;4.09;100.00;100619.88;1851699;76;86477;-70
2021/12/07 07:56:23;;;;;;;49.77;45.73;;;;;;;4.29;100.00;100613.05;1818978;78;86582;-72
2021/12/07 08:02:08;;;;;;;51.70;47.90;;;;;;;4.24;100.00;100571.72;1810021;77;86304;-72
2021/12/07 08:10:59;;;;;;;51.30;47.40;;;;;;;4.51;100.00;100534.20;1894217;75;86550;-71
2021/12/07 08:13:31;;;;;;;49.00;45.63;;;;;;;4.58;100.00;100533.47;1842308;75;936760;-72
2021/12/07 08:16:02;;;;;;;47.27;43.67;;;;;;;4.59;100.00;100537.90;1829596;76;937854;-72
2021/12/07 08:18:32;;;;;;;47.38;43.63;;;;;;;4.72;100.00;100544.95;1787522;78;938756;-74
2021/12/07 08:21:02;;;;;;;48.63;44.97;;;;;;;4.79;100.00;100545.05;1779501;76;938898;-71
2021/12/07 08:23:32;;;;;;;48.10;43.97;;;;;;;4.77;100.00;100538.98;1764619;78;938836;-72
2021/12/07 08:26:03;;;;;;;50.40;46.60;;;;;;;4.93;100.00;100531.20;1808556;77;938666;-71
2021/12/07 08:28:33;;;;;;;50.97;47.40;;;;;;;4.96;100.00;100521.63;1796461;77;945335;-71
2021/12/07 08:31:04;;;;;;;48.90;45.40;;;;;;;4.97;100.00;100517.76;1808459;77;938012;-71
2021/12/07 08:33:34;;;;;;;48.08;44.67;;;;;;;5.07;100.00;100513.77;1796437;77;938720;-71
2021/12/07 08:36:06;;;;;;;48.60;44.97;;;;;;;5.16;100.00;100510.85;1808464;77;937940;-71
2021/12/07 08:38:36;;;;;;;49.20;45.70;;;;;;;5.20;100.00;100512.00;1796478;77;938616;-71
2021/12/07 08:41:07;;;;;;;52.03;48.37;;;;;;;5.23;100.00;100519.73;1808571;77;938775;-71
2021/12/07 08:43:40;;;;;;;52.48;48.85;;;;;;;5.24;100.00;100509.55;1796591;77;938885;-71
2021/12/07 08:46:13;;;;;;;55.33;51.63;;;;;;;5.32;100.00;100500.83;1808389;77;937890;-70
2021/12/07 08:48:44;;;;;;;53.92;50.30;;;;;;;5.30;100.00;100496.97;1796785;77;938812;-71
2021/12/07 08:51:16;;;;;;;54.03;50.53;;;;;;;5.38;100.00;100489.62;1808290;77;936703;-71
2021/12/07 08:53:52;;;;;;;53.57;50.00;;;;;;;5.48;100.00;100484.73;1796289;77;938741;-71
2021/12/07 09:01:56;;;;;;;50.40;47.00;;;;;;;5.65;100.00;100457.09;1808317;77;938786;-71
2021/12/07 09:04:26;;;;;;;48.87;45.77;;;;;;;5.72;100.00;100441.16;1808603;77;936715;-72
2021/12/07 09:10:12;;;;;;;47.87;44.17;;;;;;;5.76;100.00;100396.83;1813259;78;86211;-69
2021/12/07 09:15:57;;;;;;;46.97;43.77;;;;;;;5.78;100.00;100349.98;1943313;72;86515;-70
2021/12/07 09:21:42;;;;;;;47.83;44.33;;;;;;;5.70;100.00;100322.94;1912881;74;40360;-73
2021/12/07 09:27:28;;;;;;;48.83;44.97;;;;;;;5.77;100.00;100293.23;1800843;77;87569;-71
2021/12/07 09:33:11;;;;;;;48.10;44.47;;;;;;;5.84;100.00;100253.85;1833135;76;86488;-72
2021/12/07 09:38:56;;;;;;;48.60;45.03;;;;;;;5.92;100.00;100240.96;1912636;74;86451;-71
2021/12/07 09:44:41;;;;;;;47.63;44.40;;;;;;;6.03;100.00;100210.14;1903208;74;39669;-72
2021/12/07 09:50:27;;;;;;;50.17;46.53;;;;;;;6.10;100.00;100207.12;1850869;76;85692;-72
2021/12/07 09:56:12;;;;;;;49.80;46.00;;;;;;;6.12;100.00;100174.02;1830101;78;86802;-71
2021/12/07 10:01:56;;;;;;;47.37;43.57;;;;;;;6.20;100.00;100155.59;1937050;72;86390;-71
2021/12/07 10:07:41;;;;;;;49.43;45.53;;;;;;;6.25;100.00;100117.52;1900192;74;39744;-70
2021/12/07 10:13:28;;;;;;;47.67;43.97;;;;;;;6.37;100.00;100094.66;1852178;76;85506;-72
2021/12/07 10:19:15;;;;;;;46.30;42.80;;;;;;;6.49;100.00;100083.34;1820844;77;86266;-70
2021/12/07 10:24:59;;;;;;;45.77;41.83;;;;;;;6.68;100.00;100056.26;1909376;74;86813;-71
2021/12/07 10:30:51;;;;;;;46.73;43.23;;;;;;;6.94;100.00;100061.71;1851417;73;39686;-73
2021/12/07 10:36:46;;;;;;;45.37;41.83;;;;;;;7.29;100.00;100025.13;1847089;73;39555;-73
2021/12/07 10:42:33;;;;;;;47.33;43.53;;;;;;;7.37;100.00;100019.56;1812191;78;86232;-72
2021/12/07 10:48:25;;;;;;;47.40;43.60;;;;;;;7.51;100.00;99999.05;1889236;74;85508;-71
2021/12/07 10:54:10;;;;;;;47.33;43.37;;;;;;;7.72;100.00;99962.70;1837824;76;86355;-73
2021/12/07 11:00:08;;;;;;;49.40;45.33;;;;;;;7.87;100.00;99945.17;1918738;72;86492;-73
2021/12/07 11:05:55;;;;;;;53.57;49.27;;;;;;;7.89;100.00;99925.51;1863714;74;85527;-71
2021/12/07 11:11:38;;;;;;;52.43;48.40;;;;;;;8.06;100.00;99912.91;1853090;75;86608;-71
2021/12/07 11:17:26;;;;;;;53.10;48.70;;;;;;;8.04;100.00;99886.67;1851651;75;86628;-71
2021/12/07 11:23:14;;;;;;;49.57;45.80;;;;;;;8.06;100.00;99889.40;1870940;75;86424;-69
2021/12/07 11:35:15;;;;;;;52.13;47.63;;;;;;;8.01;100.00;99816.16;1832190;77;85493;-71
2021/12/07 11:41:19;;;;;;;52.60;48.27;;;;;;;8.05;100.00;99779.89;1942467;72;85809;-70
2021/12/07 11:47:12;;;;;;;53.37;49.40;;;;;;;8.04;100.00;99747.85;1881754;75;86042;-71
2021/12/07 11:52:59;;;;;;;53.07;49.17;;;;;;;8.07;100.00;99710.47;1925935;71;86511;-70
2021/12/07 11:58:43;;;;;;;53.77;49.23;;;;;;;8.12;100.00;99692.44;1931275;70;39734;-69
2021/12/07 12:04:28;;;;;;;55.43;51.07;;;;;;;8.09;100.00;99668.12;1840462;76;86188;-70
2021/12/07 12:10:14;;;;;;;54.20;49.53;;;;;;;8.10;100.00;99658.15;1881838;75;86112;-72
2021/12/07 12:13:07;;;;;;;53.92;49.58;;;;;;;8.08;100.00;99654.05;1840220;75;934695;-72
2021/12/07 12:19:03;;;;;;;52.37;47.60;;;;;;;8.17;100.00;99612.16;1926578;73;86849;-72
2021/12/07 12:27:58;;;;;;;56.27;51.87;;;;;;;8.20;100.00;99588.87;1894243;75;86711;-72
2021/12/07 12:30:31;;;;;;;53.20;48.70;;;;;;;8.18;100.00;99586.95;1815101;76;934993;-72
2021/12/07 12:33:04;;;;;;;56.37;51.97;;;;;;;8.21;100.00;99578.63;1785809;78;935599;-69
2021/12/07 12:35:38;;;;;;;53.87;49.43;;;;;;;8.22;100.00;99563.66;1788335;78;936560;-70
2021/12/07 12:38:20;;;;;;;51.13;46.93;;;;;;;8.24;100.00;99552.57;1809830;78;936701;-72
2021/12/07 12:41:02;;;;;;;51.13;46.90;;;;;;;8.31;100.00;99527.30;1803735;78;936835;-72
2021/12/07 12:43:41;;;;;;;52.45;47.15;;;;;;;8.36;100.00;99503.70;1803908;78;935845;-72
2021/12/07 12:49:37;;;;;;;51.43;47.40;;;;;;;8.40;100.00;99481.78;1835045;76;86441;-72
2021/12/07 12:55:38;;;;;;;50.03;45.77;;;;;;;8.44;100.00;99460.13;1807211;78;85726;-71
2021/12/07 13:01:28;;;;;;;47.43;43.50;;;;;;;8.52;100.00;99422.61;1873980;74;87104;-72
2021/12/07 13:07:27;;;;;;;49.33;45.60;;;;;;;8.60;100.00;99391.48;1909425;74;86829;-70
2021/12/07 13:13:28;;;;;;;50.07;45.80;;;;;;;8.64;100.00;99355.94;1883623;74;86255;-69
2021/12/07 13:19:13;;;;;;;49.43;45.73;;;;;;;8.69;100.00;99349.48;1823018;76;86321;-72
2021/12/07 13:25:01;;;;;;;49.67;45.93;;;;;;;8.78;100.00;99319.94;1867729;74;86455;-71
2021/12/07 13:30:54;;;;;;;48.13;44.27;;;;;;;8.78;100.00;99273.44;1972524;71;39596;-70
2021/12/07 13:36:47;;;;;;;49.47;45.50;;;;;;;8.82;100.00;99242.05;1980766;71;40330;-69
2021/12/07 13:42:54;;;;;;;51.07;47.17;;;;;;;8.78;100.00;99219.46;1869097;73;86232;-71
2021/12/07 13:48:39;;;;;;;48.37;44.37;;;;;;;8.77;100.00;99186.02;1979029;71;39668;-69
2021/12/07 13:54:25;;;;;;;51.43;47.80;;;;;;;8.73;100.00;99181.64;1881602;75;86685;-71
2021/12/07 14:00:15;;;;;;;51.13;47.50;;;;;;;8.80;100.00;99177.08;1877079;75;85585;-71
2021/12/07 14:06:01;;;;;;;47.93;44.43;;;;;;;8.80;100.00;99117.00;1926245;73;86812;-72
2021/12/07 14:11:44;;;;;;;50.00;46.40;;;;;;;8.90;100.00;99101.48;1932436;71;39603;-73
2021/12/07 14:17:41;;;;;;;48.90;45.37;;;;;;;8.88;100.00;99089.93;1977749;72;86755;-69
2021/12/07 14:23:28;;;;;;;51.73;47.73;;;;;;;8.85;100.00;99059.30;1829335;76;86774;-70
2021/12/07 14:29:16;;;;;;;49.93;46.23;;;;;;;8.84;100.00;99027.20;1882810;74;86779;-70
2021/12/07 14:35:02;;;;;;;50.50;46.53;;;;;;;8.79;100.00;98998.27;1909535;72;86049;-71
2021/12/07 14:40:46;;;;;;;51.67;47.47;;;;;;;8.82;100.00;98972.72;1983101;71;39683;-72
2021/12/07 14:46:32;;;;;;;51.90;47.87;;;;;;;8.76;100.00;98967.09;1889935;74;86653;-69
2021/12/07 14:52:19;;;;;;;51.73;47.67;;;;;;;8.68;100.00;98945.95;1882487;74;86172;-72
2021/12/07 14:58:06;;;;;;;53.17;49.07;;;;;;;8.62;100.00;98951.40;1906767;72;85427;-71
2021/12/07 15:03:53;;;;;;;52.30;48.37;;;;;;;8.66;100.00;98918.36;1971534;71;39641;-69
2021/12/07 15:09:38;;;;;;;51.57;47.83;;;;;;;8.66;100.00;98888.74;1953172;72;86139;-70
2021/12/07 15:15:26;;;;;;;50.43;46.97;;;;;;;8.71;100.00;98898.03;1923473;73;86550;-71
2021/12/07 15:21:17;;;;;;;46.90;43.50;;;;;;;8.72;100.00;98923.20;1876950;73;86146;-69
2021/12/07 15:27:04;;;;;;;46.17;42.43;;;;;;;8.77;100.00;98986.13;1909181;72;85569;-71
2021/12/07 15:32:50;;;;;;;52.83;48.73;;;;;;;7.68;100.00;98990.82;1971763;71;40916;-68
2021/12/07 15:38:38;;;;;;;58.30;53.50;;;;;;;7.18;100.00;98992.20;1953166;71;39660;-72
2021/12/07 15:44:28;;;;;;;57.67;52.93;;;;;;;7.17;100.00;98979.52;1807675;77;86180;-70
2021/12/07 15:50:16;;;;;;;55.20;51.00;;;;;;;7.19;100.00;98969.53;1864907;75;86615;-70
2021/12/07 15:56:02;;;;;;;56.00;51.80;;;;;;;7.16;100.00;98964.08;1910234;73;85830;-70
2021/12/07 16:01:46;;;;;;;55.33;50.40;;;;;;;7.17;100.00;98953.30;1973832;71;39567;-71
2021/12/07 16:07:44;;;;;;;54.10;49.80;;;;;;;7.14;100.00;98918.03;1971578;71;39712;-70
2021/12/07 16:13:32;;;;;;;53.03;48.93;;;;;;;7.07;100.00;98891.95;1839328;76;86612;-70
2021/12/07 16:19:18;;;;;;;56.70;52.00;;;;;;;7.00;100.00;98884.11;1913370;73;86566;-70
2021/12/07 16:25:05;;;;;;;51.20;47.10;;;;;;;6.99;100.00;98870.61;1875918;74;86198;-69
2021/12/07 16:30:49;;;;;;;50.30;46.40;;;;;;;6.93;100.00;98859.45;1959750;70;39682;-70
2021/12/07 16:36:33;;;;;;;52.70;48.27;;;;;;;6.83;100.00;98841.16;1842657;76;86072;-70
2021/12/07 16:42:19;;;;;;;50.50;46.40;;;;;;;6.80;100.00;98848.69;1832344;76;86528;-69
2021/12/07 16:48:07;;;;;;;47.23;43.43;;;;;;;6.77;100.00;98832.17;1914673;72;86852;-69
2021/12/07 16:53:53;;;;;;;48.20;44.17;;;;;;;6.70;100.00;98837.30;1902917;72;86112;-70
2021/12/07 16:59:38;;;;;;;48.80;44.23;;;;;;;6.76;100.00;98842.16;1891938;74;86431;-68
2021/12/07 17:05:25;;;;;;;51.27;47.17;;;;;;;6.69;100.00;98854.97;1875900;75;86320;-67
2021/12/07 17:11:12;;;;;;;47.57;43.37;;;;;;;6.61;100.00;98836.95;1840823;76;86473;-70
2021/12/07 17:16:58;;;;;;;48.00;43.40;;;;;;;6.65;100.00;98833.83;1917762;73;85968;-69
2021/12/07 17:22:45;;;;;;;47.97;44.37;;;;;;;6.56;100.00;98815.81;1981812;71;39625;-70
2021/12/07 17:28:31;;;;;;;46.13;42.43;;;;;;;6.53;100.00;98808.16;1853138;76;86452;-69
2021/12/07 17:34:16;;;;;;;47.30;42.80;;;;;;;6.56;100.00;98846.70;1884773;73;86764;-69
2021/12/07 17:40:00;;;;;;;49.17;44.50;;;;;;;6.70;100.00;98811.09;1918564;71;86985;-71
2021/12/07 17:45:45;;;;;;;47.70;42.83;;;;;;;6.64;100.00;98814.27;1974518;71;39579;-69
2021/12/07 17:51:29;;;;;;;51.80;47.20;;;;;;;6.71;100.00;98821.58;1850253;76;86471;-68
2021/12/07 17:57:14;;;;;;;55.43;49.23;;;;;;;6.87;100.00;98815.96;1907237;73;86733;-69
2021/12/07 18:08:55;;;;;;;51.00;46.03;;;;;;;6.82;100.00;98810.55;1912130;72;86304;-77
2021/12/07 18:14:40;;;;;;;51.70;46.70;;;;;;;6.87;100.00;98800.78;1969921;71;40544;-71
2021/12/07 18:20:27;;;;;;;51.43;45.53;;;;;;;6.96;100.00;98798.92;1882672;74;86441;-76
2021/12/07 18:26:11;;;;;;;53.10;47.37;;;;;;;7.04;100.00;98792.66;1880668;73;85535;-76
2021/12/07 18:31:56;;;;;;;55.23;50.00;;;;;;;7.00;100.00;98794.41;1918347;74;86758;-76
2021/12/07 18:37:41;;;;;;;52.53;47.17;;;;;;;6.99;100.00;98797.47;1977354;71;39456;-70
2021/12/07 18:43:27;;;;;;;57.60;51.30;;;;;;;7.01;100.00;98778.67;1818600;76;86220;-71
2021/12/07 18:49:12;;;;;;;56.57;51.13;;;;;;;7.04;100.00;98778.86;1880932;74;86382;-72
2021/12/07 18:54:56;;;;;;;51.53;46.37;;;;;;;6.93;100.00;98760.10;1911295;74;86588;-78
2021/12/07 19:00:44;;;;;;;53.73;48.23;;;;;;;6.98;100.00;98763.53;1982566;71;39601;-73
2021/12/07 19:09:43;;;;;;;57.13;51.07;;;;;;;6.96;100.00;98764.98;1984303;71;39712;-77
2021/12/07 19:15:28;;;;;;;53.33;48.33;;;;;;;6.90;100.00;98758.77;1846333;76;86534;-77
2021/12/07 19:21:16;;;;;;;55.93;50.50;;;;;;;6.92;100.00;98755.70;1834939;76;86586;-75
2021/12/07 19:27:02;;;;;;;53.43;48.13;;;;;;;7.03;100.00;98759.28;1924881;72;86686;-70
2021/12/07 19:32:50;;;;;;;53.37;48.40;;;;;;;6.90;100.00;98753.24;1984666;71;39488;-76
2021/12/07 19:38:35;;;;;;;54.37;49.27;;;;;;;6.77;100.00;98744.45;1831121;76;86143;-71
2021/12/07 19:44:20;;;;;;;52.70;47.57;;;;;;;6.78;100.00;98741.39;1807767;78;85654;-75
2021/12/07 19:50:06;;;;;;;55.67;50.23;;;;;;;6.78;100.00;98757.13;1903102;74;86807;-71
2021/12/07 19:55:54;;;;;;;53.30;48.23;;;;;;;6.54;100.00;98728.45;1927824;73;85715;-76
2021/12/07 20:01:40;;;;;;;56.93;51.53;;;;;;;6.51;100.00;98751.11;1980854;71;39696;-78
2021/12/07 20:07:25;;;;;;;54.20;49.03;;;;;;;6.35;100.00;98750.64;1897082;74;86400;-76
2021/12/07 20:13:16;;;;;;;54.90;49.77;;;;;;;6.45;100.00;98746.03;1830733;77;85571;-71
2021/12/07 20:18:55;;;;;;;52.83;48.07;;;;;;;6.48;100.00;98731.05;1922800;73;85277;-70
2021/12/07 20:24:41;;;;;;;52.60;47.60;;;;;;;6.52;100.00;98719.66;1978840;71;39567;-76
2021/12/07 20:30:26;;;;;;;52.93;48.10;;;;;;;6.62;100.00;98711.72;1858063;75;86308;-76
2021/12/07 20:36:12;;;;;;;53.03;47.63;;;;;;;6.70;100.00;98706.83;1884201;75;86636;-71
2021/12/07 20:41:57;;;;;;;52.80;48.07;;;;;;;6.67;100.00;98705.53;1928444;73;86369;-77
2021/12/07 20:47:41;;;;;;;50.17;45.77;;;;;;;6.66;100.00;98706.65;1979593;71;39833;-76
2021/12/07 20:53:25;;;;;;;51.17;47.17;;;;;;;6.61;100.00;98719.17;1823813;76;85404;-71
2021/12/07 20:59:12;;;;;;;51.90;47.33;;;;;;;6.58;100.00;98718.98;1871795;74;86652;-76
2021/12/07 21:04:56;;;;;;;49.80;45.70;;;;;;;6.63;100.00;98715.52;1925920;71;86340;-71
2021/12/07 21:10:41;;;;;;;52.27;48.20;;;;;;;6.65;100.00;98700.05;1984985;71;40118;-75
2021/12/07 21:16:26;;;;;;;52.73;48.40;;;;;;;6.70;100.00;98695.23;1890136;74;86345;-77
2021/12/07 21:22:11;;;;;;;54.20;49.90;;;;;;;6.65;100.00;98687.08;1883683;74;86339;-78
2021/12/07 21:27:56;;;;;;;52.57;48.37;;;;;;;6.67;100.00;98679.32;1939962;72;86399;-77
2021/12/07 21:33:41;;;;;;;51.87;47.73;;;;;;;6.75;100.00;98668.09;1982908;71;39630;-70
2021/12/07 21:39:27;;;;;;;51.00;47.10;;;;;;;6.61;100.00;98649.40;1825218;76;86231;-77
2021/12/07 21:45:13;;;;;;;49.33;45.37;;;;;;;6.44;100.00;98641.81;1822439;78;86736;-76
2021/12/07 21:50:59;;;;;;;49.13;44.93;;;;;;;6.66;100.00;98623.08;1910753;74;86549;-76
2021/12/07 21:56:46;;;;;;;50.30;46.00;;;;;;;6.56;100.00;98616.42;1934466;71;39566;-71
2021/12/07 22:02:31;;;;;;;52.00;47.63;;;;;;;6.67;100.00;98607.61;1820077;77;86616;-75
2021/12/07 22:08:17;;;;;;;47.73;43.73;;;;;;;6.62;100.00;98601.39;1913752;74;86425;-76
2021/12/07 22:14:01;;;;;;;50.30;45.90;;;;;;;6.62;100.00;98586.23;1935208;73;86547;-71
2021/12/07 22:19:45;;;;;;;48.23;44.27;;;;;;;6.59;100.00;98591.00;1978960;71;39473;-75
2021/12/07 22:25:30;;;;;;;49.73;45.73;;;;;;;6.51;100.00;98593.92;1849298;76;86235;-71
2021/12/07 22:31:14;;;;;;;51.13;47.10;;;;;;;6.36;100.00;98580.53;1871117;75;85685;-75
2021/12/07 22:37:00;;;;;;;50.87;47.13;;;;;;;6.30;100.00;98579.01;1869898;75;86254;-75
2021/12/07 22:42:44;;;;;;;50.23;46.63;;;;;;;6.16;100.00;98598.34;1980780;71;39507;-71
2021/12/07 22:48:29;;;;;;;52.00;48.10;;;;;;;6.28;100.00;98608.84;1927921;72;86330;-70
2021/12/07 22:54:15;;;;;;;51.00;47.40;;;;;;;6.13;100.00;98621.03;1875441;74;86535;-75
2021/12/07 22:59:59;;;;;;;50.20;46.90;;;;;;;6.29;100.00;98627.81;1938622;73;86697;-70
2021/12/07 23:05:45;;;;;;;50.57;46.97;;;;;;;6.27;100.00;98625.12;1981965;71;39612;-76
2021/12/07 23:11:29;;;;;;;48.27;44.77;;;;;;;6.30;100.00;98639.09;1966390;69;86859;-75
2021/12/07 23:17:16;;;;;;;47.40;44.40;;;;;;;6.46;100.00;98649.19;1871463;75;86593;-71
2021/12/07 23:23:00;;;;;;;46.60;43.70;;;;;;;6.43;100.00;98648.45;1910184;72;86789;-70
2021/12/07 23:28:45;;;;;;;44.23;41.30;;;;;;;6.46;100.00;98634.62;1928662;71;40223;-71
2021/12/07 23:34:31;;;;;;;43.50;40.50;;;;;;;6.56;100.00;98629.66;1814793;76;86608;-71
2021/12/07 23:40:18;;;;;;;46.53;43.23;;;;;;;6.37;100.00;98620.17;1898869;73;86480;-70
2021/12/07 23:46:03;;;;;;;46.50;43.50;;;;;;;6.40;100.00;98611.30;1907400;73;86733;-74
2021/12/07 23:51:47;;;;;;;45.20;42.30;;;;;;;6.40;100.00;98607.16;1983663;71;39547;-76
2021/12/07 23:57:31;;;;;;;46.90;43.93;;;;;;;6.35;100.00;98595.43;1860531;75;86788;-75
